createdAt,value
2022-08-21T00:00:27.174Z,68.47
2022-08-21T00:02:58.835Z,67.70
2022-08-21T00:05:26.661Z,68.50
2022-08-21T00:07:54.015Z,68.81
2022-08-21T00:10:24.489Z,69.45
2022-08-21T00:12:52.215Z,71.20
2022-08-21T00:15:22.898Z,71.96
2022-08-21T00:17:50.531Z,73.85
2022-08-21T00:20:18.085Z,74.50
2022-08-21T00:22:45.533Z,75.08
2022-08-21T00:25:13.280Z,75.72
2022-08-21T00:27:43.039Z,76.50
2022-08-21T00:30:11.579Z,76.98
2022-08-21T00:32:47.682Z,77.82
2022-08-21T00:35:17.033Z,77.69
2022-08-21T00:37:44.606Z,77.87
2022-08-21T00:40:15.608Z,77.85
2022-08-21T00:42:42.987Z,78.87
2022-08-21T00:45:10.755Z,79.26
2022-08-21T00:47:38.225Z,79.08
2022-08-21T00:50:07.916Z,79.39
2022-08-21T00:52:39.555Z,78.82
2022-08-21T00:55:08.756Z,78.82
2022-08-21T00:57:42.195Z,79.46
2022-08-21T01:00:12.535Z,79.39
2022-08-21T01:02:40.050Z,79.26
2022-08-21T01:05:07.649Z,79.46
2022-08-21T01:07:35.197Z,79.56
2022-08-21T01:10:02.582Z,79.48
2022-08-21T01:12:29.953Z,79.49
2022-08-21T01:14:57.196Z,79.64
2022-08-21T01:17:26.004Z,79.11
2022-08-21T01:19:53.462Z,78.64
2022-08-21T01:22:21.002Z,77.90
2022-08-21T01:24:48.316Z,78.30
2022-08-21T01:27:15.719Z,77.75
2022-08-21T01:29:56.080Z,77.85
2022-08-21T01:32:23.592Z,77.98
2022-08-21T01:34:51.540Z,77.87
2022-08-21T01:37:20.350Z,78.10
2022-08-21T01:39:47.698Z,78.18
2022-08-21T01:42:15.261Z,78.42
2022-08-21T01:44:42.797Z,78.15
2022-08-21T01:47:11.312Z,77.82
2022-08-21T01:49:38.720Z,77.22
2022-08-21T01:52:06.228Z,76.77
2022-08-21T01:54:37.213Z,75.96
2022-08-21T01:57:05.001Z,75.74
2022-08-21T01:59:32.413Z,75.38
2022-08-21T02:01:59.749Z,74.58
2022-08-21T02:04:27.198Z,74.31
2022-08-21T02:06:54.551Z,74.90
2022-08-21T02:09:22.985Z,75.69
2022-08-21T02:11:52.478Z,75.46
2022-08-21T02:14:27.208Z,75.55
2022-08-21T02:17:05.358Z,76.26
2022-08-21T02:19:39.494Z,76.31
2022-08-21T02:22:11.340Z,76.77
2022-08-21T02:24:54.832Z,75.92
2022-08-21T02:27:26.294Z,75.24
2022-08-21T02:29:56.228Z,75.38
2022-08-21T02:32:23.498Z,75.30
2022-08-21T02:34:50.930Z,75.16
2022-08-21T02:37:18.355Z,74.76
2022-08-21T02:39:46.259Z,75.96
2022-08-21T02:42:13.690Z,76.85
2022-08-21T02:44:41.152Z,77.31
2022-08-21T02:47:08.436Z,77.04
2022-08-21T02:49:35.803Z,77.63
2022-08-21T02:52:03.309Z,78.00
2022-08-21T02:54:30.688Z,77.31
2022-08-21T02:56:58.409Z,78.00
2022-08-21T02:59:25.882Z,78.26
2022-08-21T03:01:53.230Z,78.10
2022-08-21T03:04:21.150Z,78.01
2022-08-21T03:06:49.050Z,76.88
2022-08-21T03:09:16.400Z,77.18
2022-08-21T03:11:43.675Z,77.58
2022-08-21T03:14:11.065Z,77.79
2022-08-21T03:16:38.348Z,78.07
2022-08-21T03:19:05.746Z,78.55
2022-08-21T03:21:33.120Z,78.49
2022-08-21T03:24:00.510Z,79.14
2022-08-21T03:26:32.028Z,79.17
2022-08-21T03:28:59.872Z,78.84
2022-08-21T03:31:31.902Z,78.51
2022-08-21T03:33:59.275Z,78.17
2022-08-21T03:36:26.692Z,77.90
2022-08-21T03:38:55.042Z,78.51
2022-08-21T03:41:22.430Z,77.47
2022-08-21T03:43:49.841Z,78.15
2022-08-21T03:46:17.143Z,78.07
2022-08-21T03:48:44.529Z,78.18
2022-08-21T03:51:11.845Z,77.12
2022-08-21T03:53:39.302Z,76.42
2022-08-21T03:56:06.970Z,76.19
2022-08-21T03:58:34.472Z,76.05
2022-08-21T04:01:01.894Z,76.47
2022-08-21T04:03:29.437Z,76.65
2022-08-21T04:05:56.708Z,76.57
2022-08-21T04:08:24.310Z,76.24
2022-08-21T04:10:53.156Z,75.67
2022-08-21T04:13:20.771Z,76.60
2022-08-21T04:15:49.194Z,75.51
2022-08-21T04:18:16.531Z,76.01
2022-08-21T04:20:50.346Z,76.03
2022-08-21T04:23:23.517Z,75.78
2022-08-21T04:25:53.012Z,75.59
2022-08-21T04:28:20.974Z,75.34
2022-08-21T04:30:49.290Z,75.81
2022-08-21T04:33:16.537Z,75.47
2022-08-21T04:35:44.564Z,75.16
2022-08-21T04:38:11.958Z,75.35
2022-08-21T04:40:39.408Z,75.96
2022-08-21T04:43:08.775Z,76.35
2022-08-21T04:45:44.506Z,75.86
2022-08-21T04:48:14.194Z,75.06
2022-08-21T04:50:44.703Z,74.67
2022-08-21T04:53:15.008Z,73.65
2022-08-21T04:55:42.858Z,72.95
2022-08-21T04:58:11.061Z,72.77
2022-08-21T05:00:38.464Z,73.70
2022-08-21T05:03:05.785Z,72.46
2022-08-21T05:05:33.881Z,73.24
2022-08-21T05:08:02.149Z,71.79
2022-08-21T05:10:29.750Z,71.36
2022-08-21T05:12:57.166Z,71.30
2022-08-21T05:15:24.702Z,72.26
2022-08-21T05:17:52.567Z,72.79
2022-08-21T05:20:28.023Z,72.99
2022-08-21T05:22:55.344Z,72.49
2022-08-21T05:25:23.686Z,71.92
2022-08-21T05:27:52.344Z,71.43
2022-08-21T05:30:20.696Z,71.02
2022-08-21T05:32:48.655Z,69.96
2022-08-21T05:35:16.055Z,69.20
2022-08-21T05:37:43.321Z,67.56
2022-08-21T05:40:21.350Z,66.80
2022-08-21T05:42:55.477Z,66.14
2022-08-21T05:45:43.235Z,65.73
2022-08-21T05:48:17.207Z,65.45
2022-08-21T05:50:45.026Z,65.24
2022-08-21T05:53:12.566Z,65.06
2022-08-21T05:55:45.719Z,65.07
2022-08-21T05:58:18.156Z,63.97
2022-08-21T06:00:45.810Z,64.12
2022-08-21T06:03:15.106Z,64.48
2022-08-21T06:05:42.553Z,64.49
2022-08-21T06:08:09.987Z,64.68
2022-08-21T06:10:37.458Z,63.88
2022-08-21T06:13:05.717Z,62.73
2022-08-21T06:15:33.093Z,62.09
2022-08-21T06:18:00.346Z,62.08
2022-08-21T06:20:27.872Z,62.29
2022-08-21T06:22:55.255Z,62.43
2022-08-21T06:25:22.717Z,62.18
2022-08-21T06:27:50.236Z,61.75
2022-08-21T06:30:18.080Z,61.49
2022-08-21T06:32:45.585Z,60.66
2022-08-21T06:35:12.926Z,60.63
2022-08-21T06:37:40.211Z,58.81
2022-08-21T06:40:12.544Z,59.26
2022-08-21T06:42:41.327Z,59.23
2022-08-21T06:45:10.972Z,59.48
2022-08-21T06:47:38.538Z,59.10
2022-08-21T06:50:08.585Z,58.73
2022-08-21T06:52:37.007Z,59.14
2022-08-21T06:55:07.009Z,59.30
2022-08-21T06:57:34.371Z,59.41
2022-08-21T07:00:01.896Z,59.30
2022-08-21T07:02:29.270Z,59.46
2022-08-21T07:04:56.573Z,59.66
2022-08-21T07:07:23.915Z,59.07
2022-08-21T07:09:51.199Z,58.07
2022-08-21T07:12:18.595Z,58.92
2022-08-21T07:14:46.073Z,59.00
2022-08-21T07:17:13.684Z,58.94
2022-08-21T07:19:41.051Z,58.79
2022-08-21T07:22:08.722Z,58.86
2022-08-21T07:24:36.025Z,58.88
2022-08-21T07:27:07.007Z,58.67
2022-08-21T07:29:36.915Z,58.45
2022-08-21T07:32:04.555Z,57.96
2022-08-21T07:34:32.028Z,57.98
2022-08-21T07:36:59.745Z,58.67
2022-08-21T07:39:33.651Z,57.85
2022-08-21T07:42:03.965Z,57.67
2022-08-21T07:44:35.604Z,57.46
2022-08-21T07:47:03.024Z,57.85
2022-08-21T07:49:30.441Z,57.36
2022-08-21T07:51:58.692Z,57.39
2022-08-21T07:54:31.032Z,57.15
2022-08-21T07:57:01.186Z,56.98
2022-08-21T07:59:28.705Z,53.00
2022-08-21T08:01:56.093Z,52.39
2022-08-21T08:04:26.507Z,53.87
2022-08-21T08:06:54.328Z,54.91
2022-08-21T08:09:21.636Z,55.50
2022-08-21T08:11:49.139Z,55.50
2022-08-21T08:14:16.900Z,54.29
2022-08-21T08:16:44.234Z,54.01
2022-08-21T08:19:11.551Z,53.39
2022-08-21T08:21:40.009Z,53.39
2022-08-21T08:24:19.466Z,53.41
2022-08-21T08:26:53.737Z,54.41
2022-08-21T08:29:22.505Z,54.86
2022-08-21T08:31:49.854Z,53.01
2022-08-21T08:34:25.039Z,49.45
2022-08-21T08:36:53.048Z,51.35
2022-08-21T08:39:26.915Z,51.40
2022-08-21T08:42:32.730Z,49.43
2022-08-21T08:45:06.742Z,48.62
2022-08-21T08:47:36.462Z,49.63
2022-08-21T08:50:23.110Z,50.39
2022-08-21T08:53:13.302Z,50.67
2022-08-21T08:55:42.252Z,50.69
2022-08-21T08:58:13.271Z,50.40
2022-08-21T09:00:40.890Z,50.35
2022-08-21T09:03:08.364Z,50.79
2022-08-21T09:06:09.406Z,51.48
2022-08-21T09:08:46.000Z,52.14
2022-08-21T09:11:28.538Z,52.95
2022-08-21T09:14:02.015Z,53.47
2022-08-21T09:17:17.211Z,53.65
2022-08-21T09:20:10.154Z,53.46
2022-08-21T09:22:37.481Z,52.76
2022-08-21T09:25:21.836Z,51.57
2022-08-21T09:27:51.842Z,51.67
2022-08-21T09:30:19.353Z,50.39
2022-08-21T09:32:46.747Z,49.36
2022-08-21T09:35:17.150Z,49.77
2022-08-21T09:38:10.552Z,51.12
2022-08-21T09:40:49.082Z,50.79
2022-08-21T09:43:20.348Z,52.01
2022-08-21T09:45:48.761Z,52.98
2022-08-21T09:48:18.704Z,52.06
2022-08-21T09:50:46.570Z,51.35
2022-08-21T09:53:22.394Z,51.99
2022-08-21T09:56:15.074Z,50.36
2022-08-21T09:58:43.557Z,49.36
2022-08-21T10:01:24.831Z,50.84
2022-08-21T10:04:25.903Z,49.73
2022-08-21T10:06:58.031Z,50.22
2022-08-21T10:09:25.702Z,50.40
2022-08-21T10:11:59.499Z,49.98
2022-08-21T10:14:35.822Z,49.32
2022-08-21T10:17:19.913Z,49.66
2022-08-21T10:19:47.239Z,50.79
2022-08-21T10:22:35.758Z,51.45
2022-08-21T10:25:03.380Z,52.84
2022-08-21T10:28:13.833Z,53.21
2022-08-21T10:30:54.055Z,53.28
2022-08-21T10:33:43.151Z,54.11
2022-08-21T10:36:21.449Z,53.61
2022-08-21T10:39:35.777Z,53.58
2022-08-21T10:42:28.324Z,54.32
2022-08-21T10:45:14.741Z,53.81
2022-08-21T10:47:49.578Z,52.67
2022-08-21T10:50:24.563Z,51.40
2022-08-21T10:53:07.454Z,52.49
2022-08-21T10:55:42.333Z,52.44
2022-08-21T10:58:12.706Z,52.42
2022-08-21T11:00:44.511Z,52.98
2022-08-21T11:03:22.880Z,52.81
2022-08-21T11:05:54.938Z,52.55
2022-08-21T11:08:30.016Z,52.26
2022-08-21T11:11:08.219Z,52.12
2022-08-21T11:13:57.419Z,51.77
2022-08-21T11:16:36.928Z,51.66
2022-08-21T11:19:25.852Z,51.30
2022-08-21T11:22:10.391Z,51.08
2022-08-21T11:24:52.863Z,51.28
2022-08-21T11:27:23.024Z,51.45
2022-08-21T11:29:53.366Z,51.85
2022-08-21T11:32:44.109Z,51.68
2022-08-21T11:35:14.430Z,52.16
2022-08-21T11:37:44.983Z,52.42
2022-08-21T11:40:53.753Z,52.20
2022-08-21T11:43:36.570Z,52.58
2022-08-21T11:46:15.492Z,52.70
2022-08-21T11:49:17.301Z,52.98
2022-08-21T11:52:04.326Z,53.36
2022-08-21T11:54:31.656Z,53.57
2022-08-21T11:57:09.146Z,53.40
2022-08-21T11:59:47.306Z,53.05
2022-08-21T12:02:16.333Z,53.38
2022-08-21T12:04:50.629Z,53.66
2022-08-21T12:07:36.673Z,53.55
2022-08-21T12:10:07.396Z,53.77
2022-08-21T12:12:36.754Z,54.07
2022-08-21T12:15:22.467Z,54.66
2022-08-21T12:18:01.393Z,54.56
2022-08-21T12:20:50.246Z,54.12
2022-08-21T12:23:20.537Z,54.50
2022-08-21T12:26:00.891Z,54.02
2022-08-21T12:28:28.731Z,53.17
2022-08-21T12:30:58.118Z,52.95
2022-08-21T12:33:35.262Z,53.25
2022-08-21T12:36:14.749Z,52.94
2022-08-21T12:38:54.392Z,52.00
2022-08-21T12:41:29.828Z,51.88
2022-08-21T12:44:01.906Z,51.23
2022-08-21T12:46:39.841Z,51.85
2022-08-21T12:49:38.336Z,52.33
2022-08-21T12:52:21.824Z,52.69
2022-08-21T12:54:49.323Z,52.53
2022-08-21T12:57:28.667Z,52.68
2022-08-21T13:00:00.869Z,52.88
2022-08-21T13:02:32.602Z,52.88
2022-08-21T13:05:00.076Z,52.92
2022-08-21T13:07:30.576Z,52.57
2022-08-21T13:10:20.416Z,52.75
2022-08-21T13:12:47.820Z,53.35
2022-08-21T13:15:15.202Z,54.24
2022-08-21T13:17:47.762Z,55.33
2022-08-21T13:20:26.392Z,56.18
2022-08-21T13:22:54.020Z,55.93
2022-08-21T13:25:22.783Z,55.96
2022-08-21T13:28:02.476Z,55.67
2022-08-21T13:30:30.001Z,55.36
2022-08-21T13:33:00.891Z,55.27
2022-08-21T13:35:37.344Z,55.02
2022-08-21T13:38:05.431Z,55.33
2022-08-21T13:40:41.055Z,54.82
2022-08-21T13:43:15.335Z,55.30
2022-08-21T13:45:50.857Z,55.13
2022-08-21T13:48:18.401Z,54.84
2022-08-21T13:50:46.611Z,55.58
2022-08-21T13:53:43.853Z,55.88
2022-08-21T13:56:22.013Z,56.26
2022-08-21T13:58:49.581Z,56.20
2022-08-21T14:01:26.937Z,55.84
2022-08-21T14:03:58.688Z,56.19
2022-08-21T14:06:27.151Z,56.55
2022-08-21T14:09:02.159Z,56.54
2022-08-21T14:11:33.337Z,55.76
2022-08-21T14:14:05.055Z,56.10
2022-08-21T14:16:46.894Z,55.96
2022-08-21T14:19:25.426Z,56.19
2022-08-21T14:21:52.971Z,56.55
2022-08-21T14:24:24.045Z,56.68
2022-08-21T14:27:12.597Z,56.97
2022-08-21T14:29:42.080Z,56.70
2022-08-21T14:32:21.686Z,55.98
2022-08-21T14:34:51.948Z,56.33
2022-08-21T14:37:20.099Z,56.70
2022-08-21T14:39:47.482Z,56.44
2022-08-21T14:42:14.758Z,57.01
2022-08-21T14:44:42.336Z,57.74
2022-08-21T14:47:10.025Z,57.79
2022-08-21T14:49:37.504Z,58.48
2022-08-21T14:52:05.012Z,58.39
2022-08-21T14:54:32.785Z,58.42
2022-08-21T14:57:03.395Z,58.49
2022-08-21T14:59:30.969Z,58.50
2022-08-21T15:01:58.393Z,58.35
2022-08-21T15:04:25.900Z,58.46
2022-08-21T15:06:53.241Z,58.51
2022-08-21T15:09:20.622Z,57.54
2022-08-21T15:11:48.149Z,57.40
2022-08-21T15:14:20.258Z,57.62
2022-08-21T15:16:48.329Z,57.13
2022-08-21T15:19:15.619Z,57.20
2022-08-21T15:21:43.095Z,57.70
2022-08-21T15:24:10.398Z,57.71
2022-08-21T15:26:37.862Z,57.93
2022-08-21T15:29:06.863Z,58.19
2022-08-21T15:31:34.689Z,58.40
2022-08-21T15:34:02.029Z,58.29
2022-08-21T15:36:29.648Z,58.65
2022-08-21T15:38:56.986Z,58.67
2022-08-21T15:41:24.354Z,58.10
2022-08-21T15:43:52.722Z,58.12
2022-08-21T15:46:20.586Z,57.03
2022-08-21T15:48:48.039Z,56.64
2022-08-21T15:51:16.257Z,56.43
2022-08-21T15:53:44.036Z,56.17
2022-08-21T15:56:19.096Z,56.02
2022-08-21T15:58:46.418Z,55.56
2022-08-21T16:01:13.828Z,55.76
2022-08-21T16:03:41.279Z,55.63
2022-08-21T16:06:08.549Z,55.30
2022-08-21T16:08:36.014Z,54.93
2022-08-21T16:11:03.750Z,54.87
2022-08-21T16:13:36.256Z,54.69
2022-08-21T16:16:03.841Z,55.02
2022-08-21T16:18:31.212Z,54.71
2022-08-21T16:20:58.706Z,54.39
2022-08-21T16:23:26.050Z,54.63
2022-08-21T16:25:53.424Z,54.76
2022-08-21T16:28:21.240Z,55.18
2022-08-21T16:30:49.782Z,55.50
2022-08-21T16:33:23.522Z,55.78
2022-08-21T16:35:51.554Z,56.00
2022-08-21T16:38:19.245Z,56.24
2022-08-21T16:40:46.642Z,56.33
2022-08-21T16:43:14.003Z,56.40
2022-08-21T16:45:43.206Z,56.93
2022-08-21T16:48:10.908Z,57.08
2022-08-21T16:50:38.446Z,57.35
2022-08-21T16:53:07.038Z,57.46
2022-08-21T16:55:35.666Z,57.69
2022-08-21T16:58:04.739Z,57.60
2022-08-21T17:00:32.535Z,57.71
2022-08-21T17:03:00.090Z,57.81
2022-08-21T17:05:27.609Z,57.77
2022-08-21T17:07:55.068Z,57.75
2022-08-21T17:10:22.491Z,57.85
2022-08-21T17:12:55.997Z,57.94
2022-08-21T17:15:25.884Z,57.97
2022-08-21T17:17:53.356Z,58.30
2022-08-21T17:20:21.299Z,58.32
2022-08-21T17:22:48.789Z,58.19
2022-08-21T17:25:19.265Z,58.66
2022-08-21T17:27:47.594Z,58.50
2022-08-21T17:30:15.306Z,58.49
2022-08-21T17:32:43.553Z,58.58
2022-08-21T17:35:11.093Z,58.78
2022-08-21T17:37:38.492Z,58.96
2022-08-21T17:40:07.254Z,59.21
2022-08-21T17:42:34.823Z,59.28
2022-08-21T17:45:02.576Z,59.44
2022-08-21T17:47:30.067Z,59.38
2022-08-21T17:49:57.611Z,59.50
2022-08-21T17:52:24.968Z,59.73
2022-08-21T17:54:52.308Z,59.99
2022-08-21T17:57:22.821Z,59.94
2022-08-21T17:59:52.403Z,60.44
2022-08-21T18:02:22.754Z,60.46
2022-08-21T18:04:51.050Z,60.62
2022-08-21T18:07:31.294Z,60.49
2022-08-21T18:10:01.801Z,60.66
2022-08-21T18:12:29.655Z,60.23
2022-08-21T18:14:57.315Z,60.40
2022-08-21T18:17:25.110Z,60.26
2022-08-21T18:19:52.471Z,60.32
2022-08-21T18:22:19.766Z,60.46
2022-08-21T18:24:47.295Z,60.28
2022-08-21T18:27:15.382Z,60.22
2022-08-21T18:29:47.062Z,59.70
2022-08-21T18:32:31.032Z,60.11
2022-08-21T18:35:03.200Z,60.08
2022-08-21T18:37:30.917Z,60.24
2022-08-21T18:39:59.614Z,60.39
2022-08-21T18:42:29.173Z,60.59
2022-08-21T18:44:59.685Z,60.88
2022-08-21T18:47:32.824Z,60.98
2022-08-21T18:50:00.226Z,61.15
2022-08-21T18:52:28.513Z,61.03
2022-08-21T18:54:56.088Z,61.29
2022-08-21T18:57:28.606Z,61.35
2022-08-21T18:59:56.554Z,61.70
2022-08-21T19:02:26.225Z,61.68
2022-08-21T19:04:53.731Z,61.58
2022-08-21T19:07:21.896Z,61.46
2022-08-21T19:10:07.476Z,61.68
2022-08-21T19:12:37.282Z,61.89
2022-08-21T19:15:07.652Z,61.87
2022-08-21T19:17:35.204Z,61.85
2022-08-21T19:20:14.819Z,62.01
2022-08-21T19:22:53.904Z,61.82
2022-08-21T19:25:33.029Z,61.89
2022-08-21T19:31:10.209Z,61.96
2022-08-21T19:33:41.253Z,61.86
2022-08-21T19:36:12.101Z,62.00
2022-08-21T19:38:39.569Z,61.79
2022-08-21T19:41:07.667Z,61.84
2022-08-21T19:43:40.516Z,61.58
2022-08-21T19:46:07.978Z,61.52
2022-08-21T19:48:36.624Z,61.92
2022-08-21T19:51:04.818Z,61.98
2022-08-21T19:53:32.116Z,62.04
2022-08-21T19:55:59.700Z,61.92
2022-08-21T19:58:38.634Z,61.85
2022-08-21T20:01:11.461Z,62.09
2022-08-21T20:06:42.664Z,61.98
2022-08-21T20:09:10.049Z,61.93
2022-08-21T20:11:44.532Z,62.09
2022-08-21T20:14:12.939Z,61.74
2022-08-21T20:16:41.573Z,61.74
2022-08-21T20:19:08.965Z,61.35
2022-08-21T20:21:44.344Z,61.43
2022-08-21T20:27:00.924Z,61.45
2022-08-21T20:29:31.487Z,61.63
2022-08-21T20:32:05.159Z,61.57
2022-08-21T20:34:32.962Z,61.59
2022-08-21T20:37:01.519Z,61.43
2022-08-21T20:39:29.134Z,61.51
2022-08-21T20:41:56.941Z,61.37
2022-08-21T20:44:27.364Z,61.59
2022-08-21T20:46:54.778Z,61.28
2022-08-21T20:49:24.200Z,61.50
2022-08-21T20:51:52.224Z,61.76
2022-08-21T20:54:21.503Z,61.54
2022-08-21T20:56:57.942Z,62.56
2022-08-21T20:59:34.294Z,62.95
2022-08-21T21:02:16.325Z,63.68
2022-08-21T21:04:48.414Z,64.21
2022-08-21T21:07:24.444Z,64.59
2022-08-21T21:09:52.365Z,65.01
2022-08-21T21:12:27.647Z,65.82
2022-08-21T21:15:15.322Z,65.37
2022-08-21T21:18:13.197Z,65.82
2022-08-21T21:20:54.178Z,66.29
2022-08-21T21:23:28.323Z,66.71
2022-08-21T21:26:00.825Z,66.98
2022-08-21T21:28:41.304Z,66.72
2022-08-21T21:31:11.176Z,66.66
2022-08-21T21:33:40.226Z,66.68
2022-08-21T21:36:30.864Z,66.52
2022-08-21T21:39:02.131Z,66.74
2022-08-21T21:41:37.781Z,66.65
2022-08-21T21:44:17.657Z,67.15
2022-08-21T21:46:51.564Z,67.06
2022-08-21T21:49:21.786Z,67.05
2022-08-21T21:52:16.681Z,67.21
2022-08-21T21:55:08.812Z,67.57
2022-08-21T21:57:53.022Z,67.93
2022-08-21T22:00:26.481Z,67.91
2022-08-21T22:03:18.852Z,67.68
2022-08-21T22:05:50.563Z,68.38
2022-08-21T22:08:32.788Z,68.42
2022-08-21T22:11:09.042Z,68.89
2022-08-21T22:14:22.698Z,69.17
2022-08-21T22:16:50.509Z,69.04
2022-08-21T22:19:26.607Z,69.08
2022-08-21T22:22:00.862Z,69.29
2022-08-21T22:24:32.127Z,69.36
2022-08-21T22:27:05.064Z,69.87
2022-08-21T22:29:50.781Z,70.55
2022-08-21T22:32:40.361Z,70.35
2022-08-21T22:35:16.718Z,70.66
2022-08-21T22:37:50.960Z,70.98
2022-08-21T22:40:28.108Z,70.76
2022-08-21T22:43:09.842Z,70.83
2022-08-21T22:45:57.579Z,70.95
2022-08-21T22:48:31.809Z,71.09
2022-08-21T22:51:35.562Z,71.84
2022-08-21T22:54:03.299Z,71.67
2022-08-21T22:56:39.705Z,71.89
2022-08-21T22:59:22.732Z,72.40
2022-08-21T23:01:56.638Z,73.51
2022-08-21T23:04:25.054Z,73.73
2022-08-21T23:06:56.375Z,73.49
2022-08-21T23:09:28.467Z,75.00
2022-08-21T23:12:01.560Z,75.69
2022-08-21T23:14:48.866Z,77.22
2022-08-21T23:17:51.074Z,77.79
2022-08-21T23:20:33.601Z,78.44
2022-08-21T23:23:22.272Z,79.05
2022-08-21T23:25:49.735Z,78.67
2022-08-21T23:28:20.184Z,78.40
2022-08-21T23:31:09.362Z,80.72
2022-08-21T23:33:39.784Z,80.10
2022-08-21T23:36:31.907Z,79.95
2022-08-21T23:39:20.461Z,79.11
2022-08-21T23:42:13.632Z,79.40
2022-08-21T23:44:45.177Z,79.89
2022-08-21T23:47:21.852Z,79.77
2022-08-21T23:49:57.123Z,80.01
2022-08-21T23:53:08.968Z,80.78
2022-08-21T23:56:16.177Z,80.61
2022-08-21T23:59:03.720Z,80.98
